sensor_id;sensor_type;location;lat;lon;timestamp;P1;durP1;ratioP1;P2;durP2;ratioP2
65924;SDS011;66010;52.084;5.412;2022-12-18T00:01:43;12.88;;;6.15;;
65924;SDS011;66010;52.084;5.412;2022-12-18T00:04:43;14.20;;;6.68;;
65924;SDS011;66010;52.084;5.412;2022-12-18T00:07:02;14.02;;;7.10;;
65924;SDS011;66010;52.084;5.412;2022-12-18T00:09:29;12.77;;;5.90;;
65924;SDS011;66010;52.084;5.412;2022-12-18T00:12:05;14.43;;;6.28;;
65924;SDS011;66010;52.084;5.412;2022-12-18T00:14:41;12.25;;;5.97;;
65924;SDS011;66010;52.084;5.412;2022-12-18T00:17:09;12.23;;;5.90;;
65924;SDS011;66010;52.084;5.412;2022-12-18T00:19:35;13.68;;;6.63;;
65924;SDS011;66010;52.084;5.412;2022-12-18T00:22:01;13.65;;;6.00;;
65924;SDS011;66010;52.084;5.412;2022-12-18T00:24:28;13.63;;;6.78;;
65924;SDS011;66010;52.084;5.412;2022-12-18T00:26:54;14.23;;;6.63;;
65924;SDS011;66010;52.084;5.412;2022-12-18T00:29:20;12.52;;;6.07;;
65924;SDS011;66010;52.084;5.412;2022-12-18T00:31:47;11.73;;;6.07;;
65924;SDS011;66010;52.084;5.412;2022-12-18T00:34:13;15.30;;;7.18;;
65924;SDS011;66010;52.084;5.412;2022-12-18T00:36:40;12.60;;;6.18;;
65924;SDS011;66010;52.084;5.412;2022-12-18T00:39:07;13.25;;;6.78;;
65924;SDS011;66010;52.084;5.412;2022-12-18T00:41:33;14.48;;;6.93;;
65924;SDS011;66010;52.084;5.412;2022-12-18T00:44:19;14.93;;;6.78;;
65924;SDS011;66010;52.084;5.412;2022-12-18T00:46:45;12.23;;;6.25;;
65924;SDS011;66010;52.084;5.412;2022-12-18T00:49:12;14.63;;;7.47;;
65924;SDS011;66010;52.084;5.412;2022-12-18T00:51:39;14.15;;;6.72;;
65924;SDS011;66010;52.084;5.412;2022-12-18T00:54:05;13.25;;;6.53;;
65924;SDS011;66010;52.084;5.412;2022-12-18T00:56:31;13.65;;;6.57;;
65924;SDS011;66010;52.084;5.412;2022-12-18T00:58:58;35.85;;;15.10;;
65924;SDS011;66010;52.084;5.412;2022-12-18T01:01:24;34.03;;;14.88;;
65924;SDS011;66010;52.084;5.412;2022-12-18T01:03:51;32.70;;;14.70;;
65924;SDS011;66010;52.084;5.412;2022-12-18T01:08:45;30.30;;;14.65;;
65924;SDS011;66010;52.084;5.412;2022-12-18T01:11:16;34.30;;;15.07;;
65924;SDS011;66010;52.084;5.412;2022-12-18T01:13:43;31.00;;;14.57;;
65924;SDS011;66010;52.084;5.412;2022-12-18T01:16:13;34.00;;;14.65;;
65924;SDS011;66010;52.084;5.412;2022-12-18T01:18:39;31.25;;;14.32;;
65924;SDS011;66010;52.084;5.412;2022-12-18T01:21:10;34.10;;;15.35;;
65924;SDS011;66010;52.084;5.412;2022-12-18T01:23:37;32.25;;;14.23;;
65924;SDS011;66010;52.084;5.412;2022-12-18T01:26:05;37.78;;;16.35;;
65924;SDS011;66010;52.084;5.412;2022-12-18T01:28:34;39.13;;;16.98;;
65924;SDS011;66010;52.084;5.412;2022-12-18T01:33:39;35.13;;;14.65;;
65924;SDS011;66010;52.084;5.412;2022-12-18T01:36:06;33.30;;;14.57;;
65924;SDS011;66010;52.084;5.412;2022-12-18T01:38:33;36.75;;;15.45;;
65924;SDS011;66010;52.084;5.412;2022-12-18T01:41:00;34.65;;;14.05;;
65924;SDS011;66010;52.084;5.412;2022-12-18T01:43:40;35.03;;;15.13;;
65924;SDS011;66010;52.084;5.412;2022-12-18T01:46:07;33.05;;;13.35;;
65924;SDS011;66010;52.084;5.412;2022-12-18T01:48:33;32.30;;;14.30;;
65924;SDS011;66010;52.084;5.412;2022-12-18T01:50:59;35.33;;;14.85;;
65924;SDS011;66010;52.084;5.412;2022-12-18T01:53:26;31.75;;;14.25;;
65924;SDS011;66010;52.084;5.412;2022-12-18T01:55:53;31.73;;;12.82;;
65924;SDS011;66010;52.084;5.412;2022-12-18T01:58:23;35.05;;;14.38;;
65924;SDS011;66010;52.084;5.412;2022-12-18T02:00:51;34.33;;;13.82;;
65924;SDS011;66010;52.084;5.412;2022-12-18T02:03:18;35.15;;;14.50;;
65924;SDS011;66010;52.084;5.412;2022-12-18T02:08:26;33.53;;;13.80;;
65924;SDS011;66010;52.084;5.412;2022-12-18T02:11:02;35.75;;;14.52;;
65924;SDS011;66010;52.084;5.412;2022-12-18T02:18:34;33.13;;;14.05;;
65924;SDS011;66010;52.084;5.412;2022-12-18T02:21:21;34.17;;;14.50;;
65924;SDS011;66010;52.084;5.412;2022-12-18T02:26:21;33.95;;;13.95;;
65924;SDS011;66010;52.084;5.412;2022-12-18T02:28:55;33.28;;;13.32;;
65924;SDS011;66010;52.084;5.412;2022-12-18T02:31:25;33.83;;;13.13;;
65924;SDS011;66010;52.084;5.412;2022-12-18T02:33:53;35.63;;;13.55;;
65924;SDS011;66010;52.084;5.412;2022-12-18T02:36:21;33.85;;;14.55;;
65924;SDS011;66010;52.084;5.412;2022-12-18T02:38:48;34.97;;;13.88;;
65924;SDS011;66010;52.084;5.412;2022-12-18T02:41:16;36.78;;;14.75;;
65924;SDS011;66010;52.084;5.412;2022-12-18T02:43:48;32.28;;;13.88;;
65924;SDS011;66010;52.084;5.412;2022-12-18T02:46:28;33.08;;;12.38;;
65924;SDS011;66010;52.084;5.412;2022-12-18T02:49:44;35.67;;;13.68;;
65924;SDS011;66010;52.084;5.412;2022-12-18T02:56:57;33.47;;;13.30;;
65924;SDS011;66010;52.084;5.412;2022-12-18T02:59:30;32.25;;;12.65;;
65924;SDS011;66010;52.084;5.412;2022-12-18T03:02:02;33.72;;;13.02;;
65924;SDS011;66010;52.084;5.412;2022-12-18T03:04:34;33.88;;;12.63;;
65924;SDS011;66010;52.084;5.412;2022-12-18T03:07:04;32.03;;;13.40;;
65924;SDS011;66010;52.084;5.412;2022-12-18T03:09:36;32.42;;;12.48;;
65924;SDS011;66010;52.084;5.412;2022-12-18T03:12:07;31.35;;;12.30;;
65924;SDS011;66010;52.084;5.412;2022-12-18T03:14:58;29.35;;;12.60;;
65924;SDS011;66010;52.084;5.412;2022-12-18T03:17:26;37.35;;;15.13;;
65924;SDS011;66010;52.084;5.412;2022-12-18T03:22:20;32.03;;;12.32;;
65924;SDS011;66010;52.084;5.412;2022-12-18T03:24:51;31.48;;;12.07;;
65924;SDS011;66010;52.084;5.412;2022-12-18T03:27:18;31.95;;;13.45;;
65924;SDS011;66010;52.084;5.412;2022-12-18T03:30:01;33.65;;;12.68;;
65924;SDS011;66010;52.084;5.412;2022-12-18T03:32:54;31.52;;;11.90;;
65924;SDS011;66010;52.084;5.412;2022-12-18T03:35:27;29.48;;;12.63;;
65924;SDS011;66010;52.084;5.412;2022-12-18T03:37:55;29.05;;;12.38;;
65924;SDS011;66010;52.084;5.412;2022-12-18T03:40:23;30.77;;;11.43;;
65924;SDS011;66010;52.084;5.412;2022-12-18T03:42:56;32.78;;;11.90;;
65924;SDS011;66010;52.084;5.412;2022-12-18T03:45:27;32.47;;;12.57;;
65924;SDS011;66010;52.084;5.412;2022-12-18T03:48:01;29.63;;;12.38;;
65924;SDS011;66010;52.084;5.412;2022-12-18T03:50:39;28.83;;;12.02;;
65924;SDS011;66010;52.084;5.412;2022-12-18T03:53:10;30.40;;;12.52;;
65924;SDS011;66010;52.084;5.412;2022-12-18T03:55:38;29.40;;;12.25;;
65924;SDS011;66010;52.084;5.412;2022-12-18T03:58:06;28.95;;;11.88;;
65924;SDS011;66010;52.084;5.412;2022-12-18T04:00:46;30.95;;;13.15;;
65924;SDS011;66010;52.084;5.412;2022-12-18T04:03:14;27.80;;;11.65;;
65924;SDS011;66010;52.084;5.412;2022-12-18T04:05:45;29.02;;;12.32;;
65924;SDS011;66010;52.084;5.412;2022-12-18T04:10:42;26.35;;;11.82;;
65924;SDS011;66010;52.084;5.412;2022-12-18T04:13:09;29.42;;;13.32;;
65924;SDS011;66010;52.084;5.412;2022-12-18T04:15:36;28.55;;;12.23;;
65924;SDS011;66010;52.084;5.412;2022-12-18T04:18:07;31.13;;;12.75;;
65924;SDS011;66010;52.084;5.412;2022-12-18T04:20:40;29.52;;;11.77;;
65924;SDS011;66010;52.084;5.412;2022-12-18T04:23:07;29.35;;;12.80;;
65924;SDS011;66010;52.084;5.412;2022-12-18T04:25:33;26.75;;;11.25;;
65924;SDS011;66010;52.084;5.412;2022-12-18T04:28:06;28.25;;;12.18;;
65924;SDS011;66010;52.084;5.412;2022-12-18T04:30:33;26.58;;;11.77;;
65924;SDS011;66010;52.084;5.412;2022-12-18T04:33:00;26.70;;;11.68;;
65924;SDS011;66010;52.084;5.412;2022-12-18T04:35:29;25.08;;;11.55;;
65924;SDS011;66010;52.084;5.412;2022-12-18T04:37:56;24.00;;;10.98;;
65924;SDS011;66010;52.084;5.412;2022-12-18T04:40:22;27.05;;;11.65;;
65924;SDS011;66010;52.084;5.412;2022-12-18T04:42:50;23.88;;;11.43;;
65924;SDS011;66010;52.084;5.412;2022-12-18T04:45:16;25.42;;;11.25;;
65924;SDS011;66010;52.084;5.412;2022-12-18T04:47:43;24.08;;;11.07;;
65924;SDS011;66010;52.084;5.412;2022-12-18T04:50:10;31.17;;;12.18;;
65924;SDS011;66010;52.084;5.412;2022-12-18T04:52:36;26.33;;;10.48;;
65924;SDS011;66010;52.084;5.412;2022-12-18T04:55:03;22.65;;;9.95;;
65924;SDS011;66010;52.084;5.412;2022-12-18T04:57:29;25.88;;;10.43;;
65924;SDS011;66010;52.084;5.412;2022-12-18T04:59:56;24.70;;;10.98;;
65924;SDS011;66010;52.084;5.412;2022-12-18T05:02:22;25.50;;;10.57;;
65924;SDS011;66010;52.084;5.412;2022-12-18T05:04:48;23.83;;;10.88;;
65924;SDS011;66010;52.084;5.412;2022-12-18T05:07:15;25.23;;;11.07;;
65924;SDS011;66010;52.084;5.412;2022-12-18T05:09:41;24.63;;;11.63;;
65924;SDS011;66010;52.084;5.412;2022-12-18T05:12:08;26.40;;;11.63;;
65924;SDS011;66010;52.084;5.412;2022-12-18T05:14:34;22.20;;;10.20;;
65924;SDS011;66010;52.084;5.412;2022-12-18T05:17:00;25.08;;;11.43;;
65924;SDS011;66010;52.084;5.412;2022-12-18T05:19:27;24.88;;;11.13;;
65924;SDS011;66010;52.084;5.412;2022-12-18T05:21:53;24.00;;;10.15;;
65924;SDS011;66010;52.084;5.412;2022-12-18T05:24:19;23.05;;;10.80;;
65924;SDS011;66010;52.084;5.412;2022-12-18T05:26:46;25.10;;;10.55;;
65924;SDS011;66010;52.084;5.412;2022-12-18T05:29:12;27.33;;;10.90;;
65924;SDS011;66010;52.084;5.412;2022-12-18T05:31:39;20.13;;;9.35;;
65924;SDS011;66010;52.084;5.412;2022-12-18T05:34:07;21.35;;;8.70;;
65924;SDS011;66010;52.084;5.412;2022-12-18T05:36:35;16.90;;;7.72;;
65924;SDS011;66010;52.084;5.412;2022-12-18T05:39:02;17.15;;;7.70;;
65924;SDS011;66010;52.084;5.412;2022-12-18T05:41:29;19.25;;;8.50;;
65924;SDS011;66010;52.084;5.412;2022-12-18T05:43:55;17.23;;;7.72;;
65924;SDS011;66010;52.084;5.412;2022-12-18T05:46:22;16.27;;;7.95;;
65924;SDS011;66010;52.084;5.412;2022-12-18T05:48:48;16.67;;;7.70;;
65924;SDS011;66010;52.084;5.412;2022-12-18T05:51:17;19.63;;;7.78;;
65924;SDS011;66010;52.084;5.412;2022-12-18T05:53:43;16.83;;;7.47;;
65924;SDS011;66010;52.084;5.412;2022-12-18T05:56:14;16.00;;;7.22;;
65924;SDS011;66010;52.084;5.412;2022-12-18T05:58:41;16.30;;;6.97;;
65924;SDS011;66010;52.084;5.412;2022-12-18T06:01:08;16.95;;;7.63;;
65924;SDS011;66010;52.084;5.412;2022-12-18T06:03:35;14.80;;;6.88;;
65924;SDS011;66010;52.084;5.412;2022-12-18T06:06:02;15.82;;;7.47;;
65924;SDS011;66010;52.084;5.412;2022-12-18T06:08:28;17.73;;;7.28;;
65924;SDS011;66010;52.084;5.412;2022-12-18T06:10:54;14.38;;;7.45;;
65924;SDS011;66010;52.084;5.412;2022-12-18T06:13:21;15.35;;;7.15;;
65924;SDS011;66010;52.084;5.412;2022-12-18T06:15:47;15.35;;;7.22;;
65924;SDS011;66010;52.084;5.412;2022-12-18T06:18:14;14.95;;;6.88;;
65924;SDS011;66010;52.084;5.412;2022-12-18T06:20:40;15.18;;;7.30;;
65924;SDS011;66010;52.084;5.412;2022-12-18T06:23:07;14.68;;;7.03;;
65924;SDS011;66010;52.084;5.412;2022-12-18T06:25:36;14.15;;;6.85;;
65924;SDS011;66010;52.084;5.412;2022-12-18T06:28:03;15.55;;;6.80;;
65924;SDS011;66010;52.084;5.412;2022-12-18T06:30:30;13.32;;;6.47;;
65924;SDS011;66010;52.084;5.412;2022-12-18T06:32:56;12.30;;;6.28;;
65924;SDS011;66010;52.084;5.412;2022-12-18T06:35:23;14.55;;;6.75;;
65924;SDS011;66010;52.084;5.412;2022-12-18T06:37:49;13.85;;;6.95;;
65924;SDS011;66010;52.084;5.412;2022-12-18T06:40:16;13.80;;;6.60;;
65924;SDS011;66010;52.084;5.412;2022-12-18T06:42:42;14.27;;;6.38;;
65924;SDS011;66010;52.084;5.412;2022-12-18T06:45:09;12.23;;;6.45;;
65924;SDS011;66010;52.084;5.412;2022-12-18T06:47:35;12.90;;;6.38;;
65924;SDS011;66010;52.084;5.412;2022-12-18T06:50:05;12.73;;;5.43;;
65924;SDS011;66010;52.084;5.412;2022-12-18T06:52:32;12.57;;;5.90;;
65924;SDS011;66010;52.084;5.412;2022-12-18T06:54:59;12.60;;;5.53;;
65924;SDS011;66010;52.084;5.412;2022-12-18T06:57:25;12.90;;;6.53;;
65924;SDS011;66010;52.084;5.412;2022-12-18T06:59:51;12.10;;;6.45;;
65924;SDS011;66010;52.084;5.412;2022-12-18T07:02:18;12.93;;;6.25;;
65924;SDS011;66010;52.084;5.412;2022-12-18T07:04:44;12.35;;;6.07;;
65924;SDS011;66010;52.084;5.412;2022-12-18T07:07:10;12.32;;;5.72;;
65924;SDS011;66010;52.084;5.412;2022-12-18T07:09:37;12.43;;;6.07;;
65924;SDS011;66010;52.084;5.412;2022-12-18T07:12:03;11.32;;;5.65;;
65924;SDS011;66010;52.084;5.412;2022-12-18T07:14:31;12.45;;;6.20;;
65924;SDS011;66010;52.084;5.412;2022-12-18T07:16:57;13.43;;;5.85;;
65924;SDS011;66010;52.084;5.412;2022-12-18T07:19:25;12.32;;;6.07;;
65924;SDS011;66010;52.084;5.412;2022-12-18T07:21:51;10.93;;;5.13;;
65924;SDS011;66010;52.084;5.412;2022-12-18T07:24:17;12.88;;;5.95;;
65924;SDS011;66010;52.084;5.412;2022-12-18T07:26:47;12.30;;;5.80;;
65924;SDS011;66010;52.084;5.412;2022-12-18T07:29:13;11.63;;;5.95;;
65924;SDS011;66010;52.084;5.412;2022-12-18T07:31:40;11.57;;;5.65;;
65924;SDS011;66010;52.084;5.412;2022-12-18T07:34:09;11.13;;;5.50;;
65924;SDS011;66010;52.084;5.412;2022-12-18T07:36:36;11.18;;;5.20;;
65924;SDS011;66010;52.084;5.412;2022-12-18T07:39:02;11.23;;;5.68;;
65924;SDS011;66010;52.084;5.412;2022-12-18T07:41:28;11.98;;;5.72;;
65924;SDS011;66010;52.084;5.412;2022-12-18T07:43:58;11.40;;;5.88;;
65924;SDS011;66010;52.084;5.412;2022-12-18T07:46:24;12.05;;;5.45;;
65924;SDS011;66010;52.084;5.412;2022-12-18T07:48:51;12.52;;;5.13;;
65924;SDS011;66010;52.084;5.412;2022-12-18T07:51:18;10.73;;;5.30;;
65924;SDS011;66010;52.084;5.412;2022-12-18T07:53:44;12.32;;;5.75;;
65924;SDS011;66010;52.084;5.412;2022-12-18T07:56:11;11.85;;;5.50;;
65924;SDS011;66010;52.084;5.412;2022-12-18T07:58:56;14.00;;;5.53;;
65924;SDS011;66010;52.084;5.412;2022-12-18T08:01:22;11.40;;;5.50;;
65924;SDS011;66010;52.084;5.412;2022-12-18T08:03:49;11.18;;;5.65;;
65924;SDS011;66010;52.084;5.412;2022-12-18T08:06:17;11.35;;;5.00;;
65924;SDS011;66010;52.084;5.412;2022-12-18T08:08:44;11.35;;;5.55;;
65924;SDS011;66010;52.084;5.412;2022-12-18T08:11:10;10.43;;;5.32;;
65924;SDS011;66010;52.084;5.412;2022-12-18T08:13:37;14.02;;;5.72;;
65924;SDS011;66010;52.084;5.412;2022-12-18T08:16:05;11.35;;;4.65;;
65924;SDS011;66010;52.084;5.412;2022-12-18T08:18:32;10.30;;;5.40;;
65924;SDS011;66010;52.084;5.412;2022-12-18T08:23:38;11.35;;;5.68;;
65924;SDS011;66010;52.084;5.412;2022-12-18T08:26:09;9.82;;;5.13;;
65924;SDS011;66010;52.084;5.412;2022-12-18T08:28:35;10.10;;;4.68;;
65924;SDS011;66010;52.084;5.412;2022-12-18T08:31:02;10.98;;;5.00;;
65924;SDS011;66010;52.084;5.412;2022-12-18T08:33:28;10.90;;;4.80;;
65924;SDS011;66010;52.084;5.412;2022-12-18T08:35:54;11.07;;;5.40;;
65924;SDS011;66010;52.084;5.412;2022-12-18T08:38:21;11.52;;;5.13;;
65924;SDS011;66010;52.084;5.412;2022-12-18T08:43:15;9.40;;;4.50;;
65924;SDS011;66010;52.084;5.412;2022-12-18T08:46:00;10.13;;;4.60;;
65924;SDS011;66010;52.084;5.412;2022-12-18T08:48:26;9.70;;;4.60;;
65924;SDS011;66010;52.084;5.412;2022-12-18T08:50:56;9.85;;;4.03;;
65924;SDS011;66010;52.084;5.412;2022-12-18T08:53:23;10.13;;;4.35;;
65924;SDS011;66010;52.084;5.412;2022-12-18T08:55:50;10.05;;;4.32;;
65924;SDS011;66010;52.084;5.412;2022-12-18T08:58:16;10.20;;;4.63;;
65924;SDS011;66010;52.084;5.412;2022-12-18T09:00:43;9.10;;;4.22;;
65924;SDS011;66010;52.084;5.412;2022-12-18T09:03:12;10.07;;;4.70;;
65924;SDS011;66010;52.084;5.412;2022-12-18T09:05:39;8.88;;;4.20;;
65924;SDS011;66010;52.084;5.412;2022-12-18T09:08:06;9.25;;;4.13;;
65924;SDS011;66010;52.084;5.412;2022-12-18T09:10:32;9.95;;;4.00;;
65924;SDS011;66010;52.084;5.412;2022-12-18T09:13:04;9.68;;;4.30;;
65924;SDS011;66010;52.084;5.412;2022-12-18T09:15:30;9.25;;;4.38;;
65924;SDS011;66010;52.084;5.412;2022-12-18T09:17:56;9.93;;;4.57;;
65924;SDS011;66010;52.084;5.412;2022-12-18T09:20:23;10.95;;;4.57;;
65924;SDS011;66010;52.084;5.412;2022-12-18T09:22:50;10.00;;;4.07;;
65924;SDS011;66010;52.084;5.412;2022-12-18T09:25:16;9.68;;;4.18;;
65924;SDS011;66010;52.084;5.412;2022-12-18T09:27:43;9.57;;;3.97;;
65924;SDS011;66010;52.084;5.412;2022-12-18T09:30:12;9.23;;;4.05;;
65924;SDS011;66010;52.084;5.412;2022-12-18T09:32:39;11.18;;;5.00;;
65924;SDS011;66010;52.084;5.412;2022-12-18T09:35:05;9.07;;;3.97;;
65924;SDS011;66010;52.084;5.412;2022-12-18T09:37:32;9.68;;;4.30;;
65924;SDS011;66010;52.084;5.412;2022-12-18T09:39:58;7.80;;;3.50;;
65924;SDS011;66010;52.084;5.412;2022-12-18T09:42:24;9.13;;;4.00;;
65924;SDS011;66010;52.084;5.412;2022-12-18T09:44:52;8.40;;;3.97;;
65924;SDS011;66010;52.084;5.412;2022-12-18T09:47:27;8.57;;;3.70;;
65924;SDS011;66010;52.084;5.412;2022-12-18T09:50:01;9.48;;;4.10;;
65924;SDS011;66010;52.084;5.412;2022-12-18T09:52:30;8.75;;;4.00;;
65924;SDS011;66010;52.084;5.412;2022-12-18T09:57:25;7.80;;;3.58;;
65924;SDS011;66010;52.084;5.412;2022-12-18T09:59:56;8.75;;;3.92;;
65924;SDS011;66010;52.084;5.412;2022-12-18T10:02:25;8.52;;;3.60;;
65924;SDS011;66010;52.084;5.412;2022-12-18T10:05:00;8.77;;;3.90;;
65924;SDS011;66010;52.084;5.412;2022-12-18T10:07:30;7.93;;;3.72;;
65924;SDS011;66010;52.084;5.412;2022-12-18T10:10:04;8.25;;;3.40;;
65924;SDS011;66010;52.084;5.412;2022-12-18T10:15:24;8.30;;;4.00;;
65924;SDS011;66010;52.084;5.412;2022-12-18T10:20:49;7.70;;;3.47;;
65924;SDS011;66010;52.084;5.412;2022-12-18T10:23:32;9.27;;;3.78;;
65924;SDS011;66010;52.084;5.412;2022-12-18T10:26:03;7.43;;;3.60;;
65924;SDS011;66010;52.084;5.412;2022-12-18T10:28:31;9.27;;;3.20;;
65924;SDS011;66010;52.084;5.412;2022-12-18T10:30:58;8.63;;;3.95;;
65924;SDS011;66010;52.084;5.412;2022-12-18T10:33:27;10.48;;;3.70;;
65924;SDS011;66010;52.084;5.412;2022-12-18T10:35:54;8.98;;;3.47;;
65924;SDS011;66010;52.084;5.412;2022-12-18T10:38:28;10.13;;;3.80;;
65924;SDS011;66010;52.084;5.412;2022-12-18T10:46:02;8.43;;;3.38;;
65924;SDS011;66010;52.084;5.412;2022-12-18T10:48:29;8.27;;;3.65;;
65924;SDS011;66010;52.084;5.412;2022-12-18T10:50:56;16.35;;;3.97;;
65924;SDS011;66010;52.084;5.412;2022-12-18T10:53:39;7.82;;;3.38;;
65924;SDS011;66010;52.084;5.412;2022-12-18T10:56:06;9.23;;;3.55;;
65924;SDS011;66010;52.084;5.412;2022-12-18T11:01:12;8.07;;;3.30;;
65924;SDS011;66010;52.084;5.412;2022-12-18T11:03:46;8.10;;;3.13;;
65924;SDS011;66010;52.084;5.412;2022-12-18T11:06:17;10.73;;;3.92;;
65924;SDS011;66010;52.084;5.412;2022-12-18T11:08:56;9.18;;;3.33;;
65924;SDS011;66010;52.084;5.412;2022-12-18T11:11:23;8.73;;;3.40;;
65924;SDS011;66010;52.084;5.412;2022-12-18T11:14:02;8.52;;;3.33;;
65924;SDS011;66010;52.084;5.412;2022-12-18T11:16:30;7.82;;;3.53;;
65924;SDS011;66010;52.084;5.412;2022-12-18T11:19:11;8.15;;;3.58;;
65924;SDS011;66010;52.084;5.412;2022-12-18T11:21:39;8.10;;;3.75;;
65924;SDS011;66010;52.084;5.412;2022-12-18T11:26:33;8.55;;;3.50;;
65924;SDS011;66010;52.084;5.412;2022-12-18T11:29:10;10.13;;;3.45;;
65924;SDS011;66010;52.084;5.412;2022-12-18T11:31:43;7.93;;;3.42;;
65924;SDS011;66010;52.084;5.412;2022-12-18T11:34:27;9.20;;;3.50;;
65924;SDS011;66010;52.084;5.412;2022-12-18T11:36:56;7.63;;;3.10;;
65924;SDS011;66010;52.084;5.412;2022-12-18T11:42:24;8.27;;;3.10;;
65924;SDS011;66010;52.084;5.412;2022-12-18T11:44:59;8.00;;;3.03;;
65924;SDS011;66010;52.084;5.412;2022-12-18T11:50:21;8.38;;;3.47;;
65924;SDS011;66010;52.084;5.412;2022-12-18T11:52:49;7.15;;;2.92;;
65924;SDS011;66010;52.084;5.412;2022-12-18T12:08:48;10.75;;;3.20;;
65924;SDS011;66010;52.084;5.412;2022-12-18T12:11:22;11.85;;;4.30;;
65924;SDS011;66010;52.084;5.412;2022-12-18T12:19:24;15.40;;;5.05;;
65924;SDS011;66010;52.084;5.412;2022-12-18T12:24:32;14.57;;;5.10;;
65924;SDS011;66010;52.084;5.412;2022-12-18T12:32:16;13.75;;;5.32;;
65924;SDS011;66010;52.084;5.412;2022-12-18T12:34:50;11.07;;;4.47;;
65924;SDS011;66010;52.084;5.412;2022-12-18T12:40:17;10.93;;;4.70;;
65924;SDS011;66010;52.084;5.412;2022-12-18T12:46:00;12.82;;;4.70;;
65924;SDS011;66010;52.084;5.412;2022-12-18T12:50:55;10.23;;;4.50;;
65924;SDS011;66010;52.084;5.412;2022-12-18T12:53:25;10.20;;;5.00;;
65924;SDS011;66010;52.084;5.412;2022-12-18T12:55:53;12.20;;;4.60;;
65924;SDS011;66010;52.084;5.412;2022-12-18T12:58:44;12.48;;;4.40;;
65924;SDS011;66010;52.084;5.412;2022-12-18T13:04:05;11.38;;;4.57;;
65924;SDS011;66010;52.084;5.412;2022-12-18T13:06:37;13.02;;;4.32;;
65924;SDS011;66010;52.084;5.412;2022-12-18T13:09:10;8.27;;;3.45;;
65924;SDS011;66010;52.084;5.412;2022-12-18T13:11:46;8.82;;;3.70;;
65924;SDS011;66010;52.084;5.412;2022-12-18T13:14:38;9.25;;;3.80;;
65924;SDS011;66010;52.084;5.412;2022-12-18T13:17:16;9.80;;;4.55;;
65924;SDS011;66010;52.084;5.412;2022-12-18T13:19:43;11.02;;;4.57;;
65924;SDS011;66010;52.084;5.412;2022-12-18T13:22:23;10.60;;;4.68;;
65924;SDS011;66010;52.084;5.412;2022-12-18T13:24:50;10.55;;;5.03;;
65924;SDS011;66010;52.084;5.412;2022-12-18T13:40:59;10.52;;;5.03;;
65924;SDS011;66010;52.084;5.412;2022-12-18T13:43:30;10.80;;;5.28;;
65924;SDS011;66010;52.084;5.412;2022-12-18T13:49:03;12.93;;;4.95;;
65924;SDS011;66010;52.084;5.412;2022-12-18T13:51:32;10.20;;;4.80;;
65924;SDS011;66010;52.084;5.412;2022-12-18T13:56:28;10.77;;;5.07;;
65924;SDS011;66010;52.084;5.412;2022-12-18T13:59:17;10.88;;;5.22;;
65924;SDS011;66010;52.084;5.412;2022-12-18T14:01:58;11.90;;;5.10;;
65924;SDS011;66010;52.084;5.412;2022-12-18T14:04:28;11.93;;;5.15;;
65924;SDS011;66010;52.084;5.412;2022-12-18T14:06:57;11.48;;;5.30;;
65924;SDS011;66010;52.084;5.412;2022-12-18T14:09:25;12.63;;;5.15;;
65924;SDS011;66010;52.084;5.412;2022-12-18T14:11:53;12.98;;;5.20;;
65924;SDS011;66010;52.084;5.412;2022-12-18T14:14:45;13.30;;;5.40;;
65924;SDS011;66010;52.084;5.412;2022-12-18T14:17:13;10.23;;;4.95;;
65924;SDS011;66010;52.084;5.412;2022-12-18T14:19:46;13.07;;;5.13;;
65924;SDS011;66010;52.084;5.412;2022-12-18T14:22:25;11.23;;;5.30;;
65924;SDS011;66010;52.084;5.412;2022-12-18T14:33:04;13.38;;;4.90;;
65924;SDS011;66010;52.084;5.412;2022-12-18T14:35:31;11.02;;;4.85;;
65924;SDS011;66010;52.084;5.412;2022-12-18T14:38:11;12.30;;;4.63;;
65924;SDS011;66010;52.084;5.412;2022-12-18T14:40:43;10.40;;;4.88;;
65924;SDS011;66010;52.084;5.412;2022-12-18T14:43:10;9.40;;;4.63;;
65924;SDS011;66010;52.084;5.412;2022-12-18T14:45:47;10.20;;;4.93;;
65924;SDS011;66010;52.084;5.412;2022-12-18T14:48:18;9.68;;;4.68;;
65924;SDS011;66010;52.084;5.412;2022-12-18T14:50:55;10.35;;;4.82;;
65924;SDS011;66010;52.084;5.412;2022-12-18T14:53:24;8.60;;;3.83;;
65924;SDS011;66010;52.084;5.412;2022-12-18T14:55:53;10.02;;;4.28;;
65924;SDS011;66010;52.084;5.412;2022-12-18T14:58:21;10.25;;;4.82;;
65924;SDS011;66010;52.084;5.412;2022-12-18T15:00:47;11.90;;;4.53;;
65924;SDS011;66010;52.084;5.412;2022-12-18T15:03:17;9.30;;;4.22;;
65924;SDS011;66010;52.084;5.412;2022-12-18T15:05:44;9.23;;;4.20;;
65924;SDS011;66010;52.084;5.412;2022-12-18T15:08:24;9.93;;;4.43;;
65924;SDS011;66010;52.084;5.412;2022-12-18T15:10:53;9.25;;;4.20;;
65924;SDS011;66010;52.084;5.412;2022-12-18T15:13:20;10.02;;;4.18;;
65924;SDS011;66010;52.084;5.412;2022-12-18T15:15:48;10.23;;;4.22;;
65924;SDS011;66010;52.084;5.412;2022-12-18T15:18:15;9.57;;;4.35;;
65924;SDS011;66010;52.084;5.412;2022-12-18T15:20:56;9.48;;;4.05;;
65924;SDS011;66010;52.084;5.412;2022-12-18T15:23:34;14.57;;;4.30;;
65924;SDS011;66010;52.084;5.412;2022-12-18T15:28:50;10.07;;;4.78;;
65924;SDS011;66010;52.084;5.412;2022-12-18T15:36:11;9.93;;;4.70;;
65924;SDS011;66010;52.084;5.412;2022-12-18T15:38:38;11.43;;;5.07;;
65924;SDS011;66010;52.084;5.412;2022-12-18T15:41:06;9.98;;;4.55;;
65924;SDS011;66010;52.084;5.412;2022-12-18T15:43:39;10.25;;;4.45;;
65924;SDS011;66010;52.084;5.412;2022-12-18T15:46:09;9.68;;;4.72;;
65924;SDS011;66010;52.084;5.412;2022-12-18T15:48:58;10.85;;;4.60;;
65924;SDS011;66010;52.084;5.412;2022-12-18T15:51:28;10.48;;;5.25;;
65924;SDS011;66010;52.084;5.412;2022-12-18T15:53:56;10.07;;;4.47;;
65924;SDS011;66010;52.084;5.412;2022-12-18T15:59:12;10.30;;;4.60;;
65924;SDS011;66010;52.084;5.412;2022-12-18T16:01:39;10.70;;;5.00;;
65924;SDS011;66010;52.084;5.412;2022-12-18T16:04:11;9.68;;;5.15;;
65924;SDS011;66010;52.084;5.412;2022-12-18T16:06:39;11.02;;;5.05;;
65924;SDS011;66010;52.084;5.412;2022-12-18T16:09:25;11.15;;;4.80;;
65924;SDS011;66010;52.084;5.412;2022-12-18T16:11:52;11.05;;;5.28;;
65924;SDS011;66010;52.084;5.412;2022-12-18T16:14:20;10.25;;;4.90;;
65924;SDS011;66010;52.084;5.412;2022-12-18T16:16:48;12.32;;;5.43;;
65924;SDS011;66010;52.084;5.412;2022-12-18T16:19:14;10.95;;;5.22;;
65924;SDS011;66010;52.084;5.412;2022-12-18T16:21:41;9.68;;;4.40;;
65924;SDS011;66010;52.084;5.412;2022-12-18T16:24:30;10.65;;;4.80;;
65924;SDS011;66010;52.084;5.412;2022-12-18T16:26:55;10.43;;;5.00;;
65924;SDS011;66010;52.084;5.412;2022-12-18T16:29:22;10.63;;;4.85;;
65924;SDS011;66010;52.084;5.412;2022-12-18T16:31:53;11.68;;;5.13;;
65924;SDS011;66010;52.084;5.412;2022-12-18T16:34:23;11.02;;;4.75;;
65924;SDS011;66010;52.084;5.412;2022-12-18T16:36:57;11.00;;;5.20;;
65924;SDS011;66010;52.084;5.412;2022-12-18T16:39:31;13.05;;;5.70;;
65924;SDS011;66010;52.084;5.412;2022-12-18T16:41:59;12.70;;;6.25;;
65924;SDS011;66010;52.084;5.412;2022-12-18T16:44:31;11.50;;;5.53;;
65924;SDS011;66010;52.084;5.412;2022-12-18T16:46:57;12.77;;;6.07;;
65924;SDS011;66010;52.084;5.412;2022-12-18T16:49:28;12.88;;;6.03;;
65924;SDS011;66010;52.084;5.412;2022-12-18T16:51:54;11.70;;;5.72;;
65924;SDS011;66010;52.084;5.412;2022-12-18T16:54:21;12.32;;;5.75;;
65924;SDS011;66010;52.084;5.412;2022-12-18T16:56:47;12.55;;;6.03;;
65924;SDS011;66010;52.084;5.412;2022-12-18T16:59:17;13.23;;;5.80;;